Time;durP1;ratioP1;P1;durP2;ratioP2;P2;SDS_P1;SDS_P2;PMS_P1;PMS_P2;Temp;Humidity;BMP_temperature;BMP_pressure;BME280_temperature;BME280_humidity;BME280_pressure;Samples;Min_cycle;Max_cycle;Signal;HPM_P1;HPM_P2
2023/10/28 00:00:55;;;;;;;2.45;1.17;;;;;;;12.47;100.00;98293.75;6093522;23;20033;-87
2023/10/28 00:03:22;;;;;;;4.60;1.27;;;;;;;12.45;100.00;98290.44;6115359;23;20085;-87
2023/10/28 00:05:49;;;;;;;7.05;1.83;;;;;;;12.45;100.00;98291.25;6066122;23;20029;-86
2023/10/28 00:08:16;;;;;;;4.53;1.08;;;;;;;12.45;100.00;98291.25;6090011;23;20025;-88
2023/10/28 00:10:44;;;;;;;5.15;0.90;;;;;;;12.43;100.00;98287.97;6139261;23;20076;-87
2023/10/28 00:13:12;;;;;;;2.45;0.98;;;;;;;12.47;100.00;98291.09;6090250;23;20033;-88
2023/10/28 00:15:41;;;;;;;4.57;0.80;;;;;;;12.46;100.00;98292.09;6113168;23;20029;-88
2023/10/28 00:18:08;;;;;;;6.32;1.23;;;;;;;12.43;100.00;98289.81;6041868;23;20029;-87
2023/10/28 00:20:36;;;;;;;1.77;0.80;;;;;;;12.46;100.00;98286.75;6089957;23;20029;-88
2023/10/28 00:23:06;;;;;;;0.80;0.60;;;;;;;12.47;100.00;98297.25;6117668;23;20030;-88
2023/10/28 00:25:33;;;;;;;5.55;0.80;;;;;;;12.48;99.96;98295.41;6090843;23;20138;-89
2023/10/28 00:28:01;;;;;;;2.20;0.82;;;;;;;12.47;100.00;98294.56;6089731;23;20026;-88
2023/10/28 00:30:27;;;;;;;4.78;1.33;;;;;;;12.47;100.00;98293.75;6136870;23;20044;-88
2023/10/28 00:32:58;;;;;;;5.53;0.90;;;;;;;12.46;100.00;98295.56;6137728;23;20091;-88
2023/10/28 00:35:30;;;;;;;2.50;1.00;;;;;;;12.48;100.00;98301.53;6067146;23;20025;-88
2023/10/28 00:37:57;;;;;;;0.73;0.50;;;;;;;12.46;100.00;98302.75;6139872;23;20029;-88
2023/10/28 00:40:29;;;;;;;2.25;0.68;;;;;;;12.44;100.00;98308.25;6115658;23;20029;-88
2023/10/28 00:42:58;;;;;;;2.17;0.68;;;;;;;12.47;100.00;98304.41;6091934;23;20022;-88
2023/10/28 00:45:27;;;;;;;1.70;0.55;;;;;;;12.45;100.00;98298.44;6114946;23;20029;-89
2023/10/28 00:47:54;;;;;;;2.42;0.70;;;;;;;12.46;100.00;98297.41;6139893;23;20452;-88
2023/10/28 00:50:23;;;;;;;3.13;0.57;;;;;;;12.46;100.00;98305.41;6142846;23;20025;-87
2023/10/28 00:52:53;;;;;;;2.22;0.70;;;;;;;12.45;100.00;98303.75;6116368;23;20025;-88
2023/10/28 00:55:22;;;;;;;3.85;0.63;;;;;;;12.48;100.00;98303.38;6140275;23;20032;-89
2023/10/28 00:57:50;;;;;;;2.30;0.73;;;;;;;12.47;100.00;98304.41;6115761;23;20060;-88
2023/10/28 01:00:17;;;;;;;3.70;0.60;;;;;;;12.47;100.00;98302.56;6139405;23;20403;-89
2023/10/28 01:02:44;;;;;;;1.40;0.68;;;;;;;12.47;99.81;98301.75;6067561;23;20095;-88
2023/10/28 01:05:13;;;;;;;1.73;0.52;;;;;;;12.49;99.48;98307.69;6115958;23;20409;-87
2023/10/28 01:07:46;;;;;;;1.08;0.95;;;;;;;12.49;99.79;98311.19;6115819;23;20794;-88
2023/10/28 01:10:30;;;;;;;2.45;0.73;;;;;;;12.44;99.57;98307.41;6091990;23;20337;-88
2023/10/28 01:12:58;;;;;;;1.58;0.65;;;;;;;12.47;99.64;98301.75;6144296;23;20033;-89
2023/10/28 01:15:26;;;;;;;6.15;0.80;;;;;;;12.47;100.00;98307.06;6140446;23;20092;-89
2023/10/28 01:17:53;;;;;;;0.70;0.50;;;;;;;12.48;99.88;98317.50;6140414;23;20453;-88
2023/10/28 01:20:20;;;;;;;3.03;0.55;;;;;;;12.47;99.78;98325.69;6091720;23;20033;-88
2023/10/28 01:22:47;;;;;;;2.42;0.50;;;;;;;12.46;100.00;98314.19;6140977;23;20033;-88
2023/10/28 01:25:14;;;;;;;5.25;0.90;;;;;;;12.44;99.82;98310.94;6139151;23;20025;-89
2023/10/28 01:27:43;;;;;;;1.58;0.50;;;;;;;12.48;99.75;98316.69;6115117;23;20026;-88
2023/10/28 01:30:13;;;;;;;1.63;0.60;;;;;;;12.46;99.68;98319.53;6092116;23;20083;-87
2023/10/28 01:32:42;;;;;;;3.53;0.60;;;;;;;12.45;99.48;98317.88;6140087;23;20040;-88
2023/10/28 01:35:09;;;;;;;2.13;0.80;;;;;;;12.44;99.50;98318.06;6115966;23;20032;-88
2023/10/28 01:37:39;;;;;;;0.80;0.40;;;;;;;12.47;99.22;98317.72;6139844;23;20033;-89
2023/10/28 01:40:12;;;;;;;0.65;0.40;;;;;;;12.44;98.78;98320.72;6138727;23;20036;-88
2023/10/28 01:42:40;;;;;;;0.55;0.50;;;;;;;12.47;98.62;98325.69;6092367;23;20025;-89
2023/10/28 01:45:09;;;;;;;1.00;1.00;;;;;;;12.46;98.02;98327.50;6115835;23;20115;-88
2023/10/28 01:47:38;;;;;;;2.60;0.40;;;;;;;12.46;98.11;98335.50;6140327;23;20033;-87
2023/10/28 01:50:08;;;;;;;0.70;0.40;;;;;;;12.42;98.28;98336.91;6115525;23;20050;-88
2023/10/28 01:52:35;;;;;;;2.83;0.55;;;;;;;12.44;98.38;98342.03;6115654;23;20603;-87
2023/10/28 01:55:02;;;;;;;2.03;0.50;;;;;;;12.43;98.58;98337.72;6140642;23;20329;-88
2023/10/28 01:57:30;;;;;;;1.35;0.35;;;;;;;12.44;98.52;98340.22;6115919;23;20025;-88
2023/10/28 01:59:58;;;;;;;1.42;0.73;;;;;;;12.42;98.06;98344.06;6091368;23;20040;-88
2023/10/28 02:02:24;;;;;;;1.23;0.50;;;;;;;12.47;97.56;98358.47;6139924;23;20021;-87
2023/10/28 02:04:51;;;;;;;0.65;0.45;;;;;;;12.43;97.24;98353.69;6090552;23;20022;-89
2023/10/28 02:07:18;;;;;;;1.23;0.40;;;;;;;12.43;97.46;98356.34;6090879;23;20048;-88
2023/10/28 02:09:45;;;;;;;0.45;0.45;;;;;;;12.44;97.72;98355.34;6139385;23;20020;-88
2023/10/28 02:12:14;;;;;;;2.35;0.65;;;;;;;12.45;97.37;98359.66;6141595;23;20457;-88
2023/10/28 02:14:43;;;;;;;1.00;0.47;;;;;;;12.41;97.33;98361.84;6091658;23;20029;-89
2023/10/28 02:17:10;;;;;;;2.30;0.70;;;;;;;12.36;96.80;98357.09;6115009;23;20029;-88
2023/10/28 02:19:38;;;;;;;1.88;0.52;;;;;;;12.38;97.28;98346.25;6139838;23;20079;-88
2023/10/28 02:22:06;;;;;;;1.30;0.70;;;;;;;12.40;96.98;98367.38;6140618;23;20022;-88
2023/10/28 02:24:38;;;;;;;;;;;;;;;12.26;96.27;98374.31;6142218;23;20307;-88
2023/10/28 02:27:05;;;;;;;0.80;0.50;;;;;;;12.35;97.16;98355.44;6091059;23;19920;-88
2023/10/28 02:29:31;;;;;;;0.73;0.50;;;;;;;12.37;97.27;98371.22;6139910;23;20052;-87
2023/10/28 02:31:58;;;;;;;3.50;0.73;;;;;;;12.37;97.05;98372.06;6142474;23;20044;-89
2023/10/28 02:34:25;;;;;;;1.70;0.80;;;;;;;12.40;96.66;98375.38;6148175;23;20093;-87
2023/10/28 02:36:52;;;;;;;4.88;0.82;;;;;;;12.42;96.37;98381.34;6140829;23;20053;-87
2023/10/28 02:39:19;;;;;;;1.75;0.77;;;;;;;12.40;96.19;98386.84;6141776;23;20025;-89
2023/10/28 02:41:45;;;;;;;1.15;0.65;;;;;;;12.38;96.34;98380.84;6114422;23;20029;-88
2023/10/28 02:44:12;;;;;;;4.05;2.10;;;;;;;12.40;95.85;98388.66;6067499;23;20017;-88
2023/10/28 02:46:39;;;;;;;2.72;0.75;;;;;;;12.39;95.94;98379.88;6117336;23;20052;-88
2023/10/28 02:49:06;;;;;;;2.55;0.73;;;;;;;12.39;95.85;98382.53;6115181;23;20025;-88
2023/10/28 02:51:33;;;;;;;3.00;1.08;;;;;;;12.41;95.65;98395.63;6139549;23;20021;-88
2023/10/28 02:54:01;;;;;;;3.95;0.90;;;;;;;12.35;95.76;98386.56;6139728;23;20022;-88
2023/10/28 02:56:28;;;;;;;3.67;1.25;;;;;;;12.36;95.74;98386.38;6091271;23;20045;-88
2023/10/28 02:58:55;;;;;;;4.63;1.25;;;;;;;12.36;95.74;98382.88;6140319;23;20033;-89
2023/10/28 03:01:21;;;;;;;4.15;1.30;;;;;;;12.37;95.90;98390.69;6145931;23;20025;-88
2023/10/28 03:03:48;;;;;;;5.60;1.60;;;;;;;12.39;95.92;98387.84;6115240;23;20049;-87
2023/10/28 03:06:16;;;;;;;5.95;1.25;;;;;;;12.40;95.12;98388.66;6139458;23;20045;-89
2023/10/28 03:08:43;;;;;;;2.75;1.05;;;;;;;12.35;94.92;98384.72;6090842;23;20108;-88
2023/10/28 03:11:10;;;;;;;2.95;1.02;;;;;;;12.32;95.53;98389.59;6139562;23;20037;-88
2023/10/28 03:13:36;;;;;;;4.35;1.10;;;;;;;12.35;96.06;98391.88;6143969;23;20448;-88
2023/10/28 03:16:04;;;;;;;6.22;1.30;;;;;;;12.30;96.20;98384.44;6142225;23;20412;-88
2023/10/28 03:18:31;;;;;;;5.43;0.95;;;;;;;12.33;96.13;98392.03;6115703;23;20096;-89
2023/10/28 03:20:58;;;;;;;4.47;1.27;;;;;;;12.32;96.31;98393.06;6140650;23;20036;-88
2023/10/28 03:23:25;;;;;;;2.85;1.08;;;;;;;12.32;96.58;98386.94;6139320;23;20029;-88
2023/10/28 03:25:52;;;;;;;7.90;1.00;;;;;;;12.31;96.65;98399.41;6115668;23;20021;-89
2023/10/28 03:28:19;;;;;;;10.30;1.10;;;;;;;12.30;96.67;98399.56;6117484;23;20025;-87
2023/10/28 03:30:45;;;;;;;5.75;1.10;;;;;;;12.30;96.81;98405.72;6069885;23;20092;-88
2023/10/28 03:33:12;;;;;;;2.17;0.85;;;;;;;12.31;96.98;98403.88;6141034;23;20187;-89
2023/10/28 03:35:39;;;;;;;4.50;1.77;;;;;;;12.26;97.16;98393.81;6114301;23;20021;-89
2023/10/28 03:38:06;;;;;;;2.72;1.02;;;;;;;12.26;97.28;98396.47;6114249;23;20029;-88
2023/10/28 03:40:33;;;;;;;3.63;1.02;;;;;;;12.25;97.11;98400.13;6090752;23;20068;-89
2023/10/28 03:43:00;;;;;;;4.00;1.08;;;;;;;12.26;96.81;98398.28;6140086;23;20021;-89
2023/10/28 03:45:28;;;;;;;2.80;0.95;;;;;;;12.26;96.67;98396.47;6114554;23;20033;-87
2023/10/28 03:47:55;;;;;;;2.78;1.02;;;;;;;12.29;97.10;98397.94;6114706;23;20392;-89
2023/10/28 03:50:22;;;;;;;4.32;0.80;;;;;;;12.26;97.40;98403.59;6114532;23;20029;-88
2023/10/28 03:52:48;;;;;;;6.63;1.02;;;;;;;12.27;97.50;98402.63;6066534;23;20030;-88
2023/10/28 03:55:15;;;;;;;4.90;1.30;;;;;;;12.23;97.82;98401.31;6115179;23;20026;-88
2023/10/28 03:57:42;;;;;;;2.95;0.90;;;;;;;12.24;98.09;98400.31;6140213;23;20033;-89
2023/10/28 04:00:11;;;;;;;4.13;1.15;;;;;;;12.23;98.18;98404.78;6090775;23;20442;-88
2023/10/28 04:02:38;;;;;;;3.67;1.42;;;;;;;12.23;98.04;98403.97;6113985;23;20028;-88
2023/10/28 04:05:06;;;;;;;7.07;1.55;;;;;;;12.24;98.35;98413.63;6139376;23;20045;-89
2023/10/28 04:07:33;;;;;;;7.22;1.38;;;;;;;12.20;98.22;98405.16;6140863;23;20031;-88
2023/10/28 04:10:08;;;;;;;5.00;1.65;;;;;;;12.19;98.36;98414.16;6115011;23;20049;-88
2023/10/28 04:12:36;;;;;;;3.10;1.33;;;;;;;12.16;98.20;98404.72;6142236;23;20089;-88
2023/10/28 04:15:06;;;;;;;8.57;1.20;;;;;;;12.17;98.33;98410.84;6142113;23;20033;-88
2023/10/28 04:17:33;;;;;;;4.53;1.27;;;;;;;12.20;98.23;98413.16;6116556;23;20029;-88
2023/10/28 04:20:00;;;;;;;3.35;1.40;;;;;;;12.19;98.47;98411.50;6140560;23;20475;-88
2023/10/28 04:22:28;;;;;;;2.25;1.52;;;;;;;12.20;98.46;98409.66;6118041;23;20025;-88
2023/10/28 04:24:56;;;;;;;6.90;2.58;;;;;;;12.18;98.68;98409.00;6102298;23;20009;-88
2023/10/28 04:27:22;;;;;;;10.40;1.95;;;;;;;12.19;98.56;98418.63;6118661;23;20029;-89
2023/10/28 04:29:50;;;;;;;2.88;1.13;;;;;;;12.17;98.65;98418.84;6106919;23;20041;-88
2023/10/28 04:32:20;;;;;;;2.72;1.73;;;;;;;12.19;98.83;98410.66;6140416;23;20528;-88
2023/10/28 04:34:47;;;;;;;3.15;1.10;;;;;;;12.18;98.90;98414.34;6116361;23;20526;-88
2023/10/28 04:37:26;;;;;;;5.55;1.02;;;;;;;12.13;98.98;98413.03;6140901;23;20028;-89
2023/10/28 04:39:53;;;;;;;8.00;1.27;;;;;;;12.14;98.87;98406.72;6140403;23;20447;-88
2023/10/28 04:42:20;;;;;;;6.60;2.50;;;;;;;12.15;98.89;98413.69;6116717;23;20475;-88
2023/10/28 04:44:47;;;;;;;9.85;2.40;;;;;;;12.16;99.02;98406.53;6141316;23;20037;-88
2023/10/28 04:47:38;;;;;;;4.97;1.75;;;;;;;12.11;98.76;98406.22;6141050;23;20017;-88
2023/10/28 04:50:05;;;;;;;3.13;1.40;;;;;;;12.16;98.83;98407.38;6067365;23;20028;-88
2023/10/28 04:52:32;;;;;;;4.80;1.48;;;;;;;12.18;98.57;98403.69;6142899;23;20040;-86
2023/10/28 04:54:59;;;;;;;7.47;2.05;;;;;;;12.16;98.63;98404.72;6141663;23;20032;-86
2023/10/28 04:57:26;;;;;;;7.45;1.48;;;;;;;12.15;98.56;98404.88;6140693;23;20041;-86
2023/10/28 04:59:53;;;;;;;2.60;1.08;;;;;;;12.16;98.34;98411.84;6143056;23;20031;-86
2023/10/28 05:02:19;;;;;;;5.90;2.40;;;;;;;12.13;98.44;98405.03;6116709;23;20087;-85
2023/10/28 05:04:46;;;;;;;15.80;5.85;;;;;;;12.12;98.61;98408.72;6116793;23;20108;-86
2023/10/28 05:07:13;;;;;;;11.68;3.55;;;;;;;12.16;98.78;98414.50;6143214;23;20356;-86
2023/10/28 05:09:40;;;;;;;3.53;1.95;;;;;;;12.14;98.92;98405.91;6141211;23;20315;-86
2023/10/28 05:12:07;;;;;;;4.70;1.70;;;;;;;12.12;98.88;98399.91;6140608;23;20037;-87
2023/10/28 05:14:34;;;;;;;3.60;1.77;;;;;;;12.13;98.86;98398.91;6142446;23;20029;-86
2023/10/28 05:17:01;;;;;;;7.80;1.85;;;;;;;12.11;98.96;98401.75;6118850;23;20028;-86
2023/10/28 05:19:28;;;;;;;7.65;3.28;;;;;;;12.11;98.97;98398.25;6116393;23;20349;-86
2023/10/28 05:21:55;;;;;;;5.13;2.25;;;;;;;12.11;99.00;98403.56;6139907;23;20032;-86
2023/10/28 05:24:22;;;;;;;6.32;2.05;;;;;;;12.09;99.23;98398.44;6141390;23;20025;-86
2023/10/28 05:26:49;;;;;;;8.75;1.80;;;;;;;12.10;99.11;98408.06;6143812;23;20037;-86
2023/10/28 05:29:16;;;;;;;7.53;1.80;;;;;;;12.10;99.15;98416.06;6142803;23;20085;-87
2023/10/28 05:31:43;;;;;;;5.13;1.33;;;;;;;12.12;99.17;98408.72;6123008;23;20037;-87
2023/10/28 05:34:10;;;;;;;9.95;1.88;;;;;;;12.08;99.12;98404.75;6115586;23;20036;-87
2023/10/28 05:36:37;;;;;;;9.27;2.03;;;;;;;12.07;99.07;98402.28;6116461;23;20113;-87
2023/10/28 05:39:04;;;;;;;4.53;1.30;;;;;;;12.09;99.38;98408.28;6067736;23;20029;-86
2023/10/28 05:41:32;;;;;;;5.93;1.50;;;;;;;12.10;99.37;98401.94;6115540;23;20334;-86
2023/10/28 05:43:59;;;;;;;4.43;1.02;;;;;;;12.07;99.26;98403.13;6091736;23;20364;-86
2023/10/28 05:46:25;;;;;;;4.65;1.10;;;;;;;12.09;99.21;98416.25;6115783;23;20025;-86
2023/10/28 05:48:52;;;;;;;6.50;1.20;;;;;;;12.07;99.29;98412.94;6115549;23;20025;-86
2023/10/28 05:51:19;;;;;;;5.80;1.42;;;;;;;12.09;99.22;98416.25;6115710;23;20017;-86
2023/10/28 05:53:46;;;;;;;1.73;0.90;;;;;;;12.06;99.42;98414.78;6091850;23;20029;-86
2023/10/28 05:56:12;;;;;;;4.35;1.00;;;;;;;12.06;99.51;98411.25;6141530;23;20397;-86
2023/10/28 05:58:40;;;;;;;8.27;1.10;;;;;;;12.04;99.48;98416.78;6068266;23;20025;-86
2023/10/28 06:01:06;;;;;;;4.18;0.90;;;;;;;12.07;99.46;98424.41;6091232;23;20026;-86
2023/10/28 06:03:33;;;;;;;9.18;1.50;;;;;;;12.08;99.62;98427.88;6115819;23;20416;-87
2023/10/28 06:06:00;;;;;;;4.32;1.40;;;;;;;12.06;99.60;98433.41;6140605;23;20029;-87
2023/10/28 06:08:27;;;;;;;10.57;1.48;;;;;;;12.05;99.70;98428.25;6115237;23;20522;-86
2023/10/28 06:10:56;;;;;;;5.15;1.73;;;;;;;12.06;99.79;98435.22;6115955;23;20409;-85
2023/10/28 06:13:23;;;;;;;6.50;1.55;;;;;;;12.04;99.97;98437.25;6115223;23;20044;-86
2023/10/28 06:15:50;;;;;;;2.65;1.38;;;;;;;12.02;99.81;98437.41;6091012;23;20029;-88
2023/10/28 06:18:19;;;;;;;8.80;1.30;;;;;;;12.05;99.76;98447.69;6090445;23;20023;-88
2023/10/28 06:20:47;;;;;;;5.88;1.15;;;;;;;12.04;99.84;98447.91;6140622;23;20021;-89
2023/10/28 06:23:15;;;;;;;4.38;1.25;;;;;;;12.05;99.81;98455.69;6114835;23;20025;-89
2023/10/28 06:25:42;;;;;;;9.18;1.70;;;;;;;12.03;99.99;98446.22;6072761;23;20052;-89
2023/10/28 06:28:10;;;;;;;8.77;1.75;;;;;;;12.05;100.00;98453.03;6136583;23;20048;-89
2023/10/28 06:30:48;;;;;;;5.50;1.60;;;;;;;11.99;100.00;98444.94;6090396;23;20064;-89
2023/10/28 06:33:15;;;;;;;10.02;1.60;;;;;;;12.06;100.00;98453.84;6090586;23;20032;-88
2023/10/28 06:35:42;;;;;;;8.23;1.90;;;;;;;12.05;100.00;98455.69;6089127;23;20048;-88
2023/10/28 06:38:09;;;;;;;3.95;1.40;;;;;;;12.05;100.00;98461.00;6113325;23;20037;-86
2023/10/28 06:40:37;;;;;;;11.38;1.92;;;;;;;12.06;100.00;98464.47;6090141;23;20025;-86
2023/10/28 06:43:04;;;;;;;16.90;1.90;;;;;;;12.03;100.00;98465.66;6090308;23;20021;-87
2023/10/28 06:45:31;;;;;;;4.30;1.38;;;;;;;12.03;100.00;98463.00;6115402;23;20021;-85
2023/10/28 06:47:58;;;;;;;8.35;1.30;;;;;;;12.04;99.88;98458.53;6140280;23;20029;-88
2023/10/28 06:50:24;;;;;;;6.30;1.27;;;;;;;12.06;99.77;98485.75;6113630;23;20029;-87
2023/10/28 06:52:51;;;;;;;5.35;1.23;;;;;;;12.05;99.99;98476.13;6066120;23;20067;-87
2023/10/28 06:55:18;;;;;;;4.88;1.10;;;;;;;12.05;100.00;98482.28;6089223;23;20100;-87
2023/10/28 06:57:45;;;;;;;7.55;1.10;;;;;;;12.04;100.00;98485.97;6113496;23;20080;-86
2023/10/28 07:00:13;;;;;;;2.30;1.05;;;;;;;12.05;100.00;98487.59;6114043;23;20155;-87
2023/10/28 07:02:40;;;;;;;4.35;1.20;;;;;;;12.07;100.00;98495.41;6113794;23;20088;-87
2023/10/28 07:05:11;;;;;;;10.55;2.55;;;;;;;12.06;100.00;98491.94;6065657;23;20037;-87
2023/10/28 07:07:39;;;;;;;3.70;1.35;;;;;;;12.06;100.00;98496.41;6113160;23;20027;-87
2023/10/28 07:10:06;;;;;;;4.38;1.48;;;;;;;12.06;100.00;98499.91;6137264;23;20039;-86
2023/10/28 07:12:33;;;;;;;9.60;1.60;;;;;;;12.08;100.00;98507.72;6114314;23;20543;-87
2023/10/28 07:15:00;;;;;;;3.78;1.58;;;;;;;12.09;100.00;98509.38;6089905;23;20027;-87
2023/10/28 07:17:27;;;;;;;3.08;2.00;;;;;;;12.09;100.00;98514.69;6089918;23;20442;-85
2023/10/28 07:19:54;;;;;;;6.82;2.47;;;;;;;12.09;100.00;98517.38;6089655;23;20096;-87
2023/10/28 07:22:22;;;;;;;6.07;2.67;;;;;;;12.09;100.00;98509.38;6089274;23;20017;-86
2023/10/28 07:24:49;;;;;;;5.45;2.65;;;;;;;12.10;100.00;98509.19;6113836;23;20121;-86
2023/10/28 07:27:17;;;;;;;9.00;3.03;;;;;;;12.12;100.00;98509.03;6091487;23;20029;-87
2023/10/28 07:29:44;;;;;;;9.02;3.13;;;;;;;12.11;100.00;98504.69;6103693;23;20029;-87
2023/10/28 07:32:11;;;;;;;4.30;2.53;;;;;;;12.13;100.00;98508.81;6141383;23;20029;-88
2023/10/28 07:34:38;;;;;;;3.30;2.90;;;;;;;12.12;100.00;98506.34;6114795;23;20023;-86
2023/10/28 07:37:05;;;;;;;6.75;2.60;;;;;;;12.15;100.00;98511.31;6138872;23;20025;-86
2023/10/28 07:39:31;;;;;;;8.50;2.40;;;;;;;12.16;100.00;98518.28;6140288;23;20032;-87
2023/10/28 07:41:58;;;;;;;7.13;2.20;;;;;;;12.18;100.00;98520.78;6143656;23;20101;-86
2023/10/28 07:44:25;;;;;;;9.23;2.40;;;;;;;12.21;100.00;98528.41;6116825;23;20416;-86
2023/10/28 07:46:52;;;;;;;10.07;2.80;;;;;;;12.22;100.00;98538.06;6141844;23;20017;-86
2023/10/28 07:49:19;;;;;;;13.10;3.40;;;;;;;12.23;100.00;98535.19;6148529;23;20417;-86
2023/10/28 07:51:46;;;;;;;8.23;4.30;;;;;;;12.24;100.00;98542.19;6140847;23;20025;-86
2023/10/28 07:54:14;;;;;;;9.50;3.92;;;;;;;12.22;100.00;98544.19;6144230;23;20084;-86
2023/10/28 07:56:42;;;;;;;15.57;3.58;;;;;;;12.26;100.00;98557.97;6140494;23;20060;-86
2023/10/28 07:59:12;;;;;;;10.30;2.92;;;;;;;12.24;100.00;98552.84;6142451;23;20025;-87
2023/10/28 08:01:39;;;;;;;10.93;2.75;;;;;;;12.23;100.00;98553.00;6140331;23;20033;-86
2023/10/28 08:04:06;;;;;;;8.23;1.88;;;;;;;12.26;100.00;98557.97;6148443;23;20671;-87
2023/10/28 08:06:34;;;;;;;8.77;2.15;;;;;;;12.26;100.00;98558.81;6143472;23;20096;-85
2023/10/28 08:09:05;;;;;;;5.72;1.50;;;;;;;12.27;100.00;98554.31;6142624;23;20360;-86
2023/10/28 08:11:32;;;;;;;12.30;2.00;;;;;;;12.27;100.00;98555.13;6142813;23;20468;-86
2023/10/28 08:13:59;;;;;;;15.35;2.95;;;;;;;12.27;100.00;98557.81;6143373;23;20036;-86
2023/10/28 08:16:26;;;;;;;15.95;2.90;;;;;;;12.27;100.00;98563.13;6116457;23;20497;-87
2023/10/28 08:18:53;;;;;;;8.02;2.25;;;;;;;12.28;100.00;98561.28;6140662;23;20033;-86
2023/10/28 08:21:20;;;;;;;7.63;2.25;;;;;;;12.29;100.00;98562.97;6140350;23;20025;-86
2023/10/28 08:23:49;;;;;;;8.18;2.40;;;;;;;12.29;100.00;98563.78;6143343;23;20047;-86
2023/10/28 08:26:18;;;;;;;10.82;2.67;;;;;;;12.30;100.00;98568.09;6143099;23;20446;-86
2023/10/28 08:28:50;;;;;;;8.77;2.92;;;;;;;12.30;100.00;98565.41;6137690;23;20025;-86
2023/10/28 08:31:17;;;;;;;6.93;1.70;;;;;;;12.29;100.00;98571.75;6140076;23;20029;-85
2023/10/28 08:33:44;;;;;;;6.20;2.10;;;;;;;12.32;100.00;98568.75;6139256;23;20024;-86
2023/10/28 08:36:11;;;;;;;5.18;1.52;;;;;;;12.34;100.00;98577.38;6141691;23;20120;-86
2023/10/28 08:38:38;;;;;;;8.05;1.92;;;;;;;12.33;100.00;98575.72;6140300;23;20049;-87
2023/10/28 08:41:05;;;;;;;3.55;1.67;;;;;;;12.34;100.00;98577.38;6140902;23;20026;-85
2023/10/28 08:43:36;;;;;;;6.63;1.80;;;;;;;12.34;100.00;98582.72;6142223;23;20052;-86
2023/10/28 08:46:04;;;;;;;9.55;2.35;;;;;;;12.37;100.00;98584.19;6143933;23;20033;-86
2023/10/28 08:48:32;;;;;;;6.18;2.13;;;;;;;12.39;100.00;98590.16;6140853;23;20032;-86
2023/10/28 08:51:00;;;;;;;5.45;1.50;;;;;;;12.40;100.00;98586.50;6142934;23;20022;-85
2023/10/28 08:53:28;;;;;;;5.32;2.30;;;;;;;12.42;100.00;98583.66;6142363;23;20025;-86
2023/10/28 08:55:56;;;;;;;8.77;2.42;;;;;;;12.45;100.00;98591.28;6140837;23;20025;-87
2023/10/28 08:58:23;;;;;;;9.10;2.75;;;;;;;12.48;100.00;98593.59;6142425;23;20029;-86
2023/10/28 09:00:50;;;;;;;8.00;3.10;;;;;;;12.49;100.00;98590.75;6117966;23;20052;-86
2023/10/28 09:03:22;;;;;;;8.27;3.92;;;;;;;12.50;100.00;98599.56;6145220;23;20309;-88
2023/10/28 09:05:53;;;;;;;6.72;3.40;;;;;;;12.52;100.00;98586.91;6144649;23;20048;-88
2023/10/28 09:08:20;;;;;;;7.07;2.85;;;;;;;12.56;100.00;98593.50;6142088;23;20028;-87
2023/10/28 09:10:47;;;;;;;11.43;2.80;;;;;;;12.57;100.00;98590.69;6144454;23;20092;-88
2023/10/28 09:13:15;;;;;;;10.85;2.92;;;;;;;12.58;100.00;98595.00;6118330;23;20080;-88
2023/10/28 09:15:42;;;;;;;22.08;3.80;;;;;;;12.61;100.00;98588.47;6092647;23;20077;-87
2023/10/28 09:18:08;;;;;;;8.93;3.38;;;;;;;12.62;100.00;98584.81;6131259;23;20021;-87
2023/10/28 09:20:40;;;;;;;9.77;3.60;;;;;;;12.64;100.00;98584.63;6141218;23;20040;-87
2023/10/28 09:23:06;;;;;;;6.28;2.88;;;;;;;12.60;100.00;98585.00;6143642;23;20423;-87
2023/10/28 09:25:36;;;;;;;7.45;2.70;;;;;;;12.66;100.00;98587.94;6141182;23;20434;-88
2023/10/28 09:28:07;;;;;;;6.68;2.40;;;;;;;12.65;100.00;98583.63;6118000;23;20037;-87
2023/10/28 09:30:47;;;;;;;7.20;2.30;;;;;;;12.64;100.00;98573.97;6143576;23;20100;-87
2023/10/28 09:33:15;;;;;;;5.45;2.05;;;;;;;12.74;100.00;98571.88;6126200;23;20029;-87
2023/10/28 09:35:44;;;;;;;5.47;1.95;;;;;;;12.76;100.00;98576.03;6146819;23;20014;-86
2023/10/28 09:38:11;;;;;;;7.00;2.20;;;;;;;12.79;100.00;98580.16;6116513;23;20120;-89
2023/10/28 09:40:39;;;;;;;8.20;2.25;;;;;;;12.81;100.00;98572.81;6106773;23;20021;-88
2023/10/28 09:43:06;;;;;;;4.60;2.08;;;;;;;12.87;99.99;98585.41;6115722;23;20036;-88
2023/10/28 09:45:35;;;;;;;4.30;1.58;;;;;;;12.86;99.88;98583.75;6141055;23;20025;-89
2023/10/28 09:48:15;;;;;;;3.63;1.13;;;;;;;12.90;99.41;98585.06;6067858;23;20029;-88
2023/10/28 09:50:49;;;;;;;3.83;1.40;;;;;;;12.95;99.37;98579.16;6092428;23;20045;-89
2023/10/28 09:53:17;;;;;;;5.85;1.60;;;;;;;12.99;99.22;98575.97;6142190;23;20464;-89
2023/10/28 09:55:46;;;;;;;5.15;1.45;;;;;;;13.02;99.16;98588.91;6140033;23;20044;-89
2023/10/28 09:58:19;;;;;;;9.30;2.47;;;;;;;13.00;98.88;98569.66;6090904;23;20345;-88
2023/10/28 10:00:48;;;;;;;5.15;2.35;;;;;;;13.08;99.17;98575.88;6091162;23;20088;-90
2023/10/28 10:03:25;;;;;;;6.75;1.90;;;;;;;13.05;98.55;98579.72;6091092;23;20029;-90
2023/10/28 10:05:53;;;;;;;12.75;2.20;;;;;;;13.09;98.69;98575.69;6140568;23;20044;-89
2023/10/28 10:08:23;;;;;;;6.90;1.83;;;;;;;13.12;98.63;98579.84;6115110;23;20036;-87
2023/10/28 10:10:57;;;;;;;4.20;1.70;;;;;;;13.11;98.21;98578.19;6140710;23;20021;-89
2023/10/28 10:13:23;;;;;;;6.95;1.60;;;;;;;13.13;98.16;98590.34;6139633;23;20040;-87
2023/10/28 10:16:04;;;;;;;9.90;3.00;;;;;;;13.08;97.73;98584.72;6115341;23;20464;-89
2023/10/28 10:18:46;;;;;;;4.47;1.40;;;;;;;13.07;97.54;98572.38;6114581;23;20064;-89
2023/10/28 10:21:18;;;;;;;5.43;1.38;;;;;;;13.13;97.60;98574.34;6114439;23;20032;-89
2023/10/28 10:23:50;;;;;;;6.50;1.37;;;;;;;13.16;96.85;98581.16;6115541;23;20033;-88
2023/10/28 10:26:36;;;;;;;7.68;1.60;;;;;;;13.12;96.08;98579.84;6100797;23;20329;-89
2023/10/28 10:30:44;;;;;;;3.30;1.13;;;;;;;13.08;95.51;98578.53;5953345;23;20026;-89
2023/10/28 10:34:43;;;;;;;4.72;1.65;;;;;;;13.09;95.13;98570.38;5959432;23;20021;-89
2023/10/28 10:37:23;;;;;;;7.05;1.40;;;;;;;13.11;94.93;98571.03;6138158;23;20847;-88
2023/10/28 10:39:50;;;;;;;7.70;1.25;;;;;;;13.16;95.27;98571.31;6114648;23;20025;-88
2023/10/28 10:42:17;;;;;;;5.25;1.85;;;;;;;13.17;95.04;98566.78;6138847;23;20060;-88
2023/10/28 10:44:46;;;;;;;8.55;2.05;;;;;;;13.18;94.79;98571.94;6114941;23;20018;-89
2023/10/28 10:47:17;;;;;;;7.90;1.42;;;;;;;13.19;94.77;98570.94;6122463;23;20084;-88
2023/10/28 10:49:44;;;;;;;11.27;1.70;;;;;;;13.16;94.45;98573.97;6141242;23;20029;-88
2023/10/28 10:52:11;;;;;;;5.85;1.52;;;;;;;13.18;94.26;98571.13;6089412;23;20030;-87
2023/10/28 10:54:39;;;;;;;7.78;2.15;;;;;;;13.20;93.73;98585.94;6138375;23;20029;-88
2023/10/28 10:57:10;;;;;;;5.55;1.50;;;;;;;13.15;92.92;98580.31;6089458;23;20493;-89
2023/10/28 10:59:40;;;;;;;7.55;1.73;;;;;;;13.15;92.71;98587.47;6109587;23;20029;-88
2023/10/28 11:02:10;;;;;;;9.30;1.95;;;;;;;13.20;92.82;98587.75;6136553;23;20523;-88
2023/10/28 11:04:38;;;;;;;7.70;1.60;;;;;;;13.21;92.81;98590.25;6115551;23;20041;-87
2023/10/28 11:07:06;;;;;;;7.50;1.60;;;;;;;13.25;92.74;98594.22;6113907;23;20105;-88
2023/10/28 11:09:34;;;;;;;7.18;1.30;;;;;;;13.25;92.65;98588.03;6114064;23;20472;-87
2023/10/28 11:12:01;;;;;;;10.68;1.88;;;;;;;13.28;92.59;98582.38;6098766;23;20351;-88
2023/10/28 11:14:29;;;;;;;7.10;2.22;;;;;;;13.32;92.32;98590.81;6060710;23;20751;-88
2023/10/28 11:16:57;;;;;;;4.35;2.08;;;;;;;13.30;92.08;98582.19;6097318;23;20029;-89
2023/10/28 11:19:24;;;;;;;6.43;1.95;;;;;;;13.32;92.47;98585.50;6089550;23;20029;-88
2023/10/28 11:21:51;;;;;;;8.93;2.20;;;;;;;13.31;92.15;98590.00;6089983;23;20032;-88
2023/10/28 11:24:19;;;;;;;5.85;2.00;;;;;;;13.33;92.31;98584.47;6090471;23;20051;-90
2023/10/28 11:26:49;;;;;;;4.68;1.80;;;;;;;13.31;92.21;98587.34;6136947;23;20108;-88
2023/10/28 11:29:16;;;;;;;7.25;1.92;;;;;;;13.32;92.13;98575.66;6065285;23;20105;-88
2023/10/28 11:31:45;;;;;;;7.13;1.90;;;;;;;13.36;91.93;98578.78;6114921;23;20060;-90
2023/10/28 11:34:13;;;;;;;8.15;2.10;;;;;;;13.34;91.62;98578.97;6138012;23;20021;-89
2023/10/28 11:36:40;;;;;;;5.95;2.65;;;;;;;13.36;91.71;98579.63;6065724;23;20092;-88